Time;durP1;ratioP1;P1;durP2;ratioP2;P2;SDS_P1;SDS_P2;PMS_P1;PMS_P2;Temp;Humidity;BMP_temperature;BMP_pressure;BME280_temperature;BME280_humidity;BME280_pressure;Samples;Min_cycle;Max_cycle;Signal;HPM_P1;HPM_P2
2022/07/03 00:00:08;;;;;;;6.10;3.40;;;;;;;26.25;42.61;99093.56;5053069;28;20025;-91
2022/07/03 00:02:34;;;;;;;5.20;3.63;;;;;;;26.17;42.46;99082.06;5037084;28;20037;-92
2022/07/03 00:04:59;;;;;;;6.65;3.83;;;;;;;26.21;42.49;99081.66;5037878;28;20030;-92
2022/07/03 00:07:25;;;;;;;4.43;3.58;;;;;;;26.26;42.70;99071.13;5021697;28;20037;-91
2022/07/03 00:09:50;;;;;;;4.78;3.58;;;;;;;26.21;42.50;99076.31;5038445;28;20492;-90
2022/07/03 00:12:16;;;;;;;4.80;3.65;;;;;;;26.17;42.66;99076.72;5021420;28;20066;-92
2022/07/03 00:14:43;;;;;;;5.45;3.90;;;;;;;26.05;43.03;99073.06;5038229;28;20033;-91
2022/07/03 00:17:08;;;;;;;5.88;3.60;;;;;;;25.99;42.82;99074.69;5037293;28;20045;-90
2022/07/03 00:19:34;;;;;;;5.15;3.60;;;;;;;25.95;43.04;99078.81;5038734;28;20026;-91
2022/07/03 00:22:04;;;;;;;7.35;3.80;;;;;;;25.93;43.01;99074.69;5023326;28;20033;-90
2022/07/03 00:24:44;;;;;;;3.92;3.40;;;;;;;25.89;43.23;99074.28;5036961;28;20053;-91
2022/07/03 00:27:09;;;;;;;5.25;3.35;;;;;;;25.89;43.24;99060.91;5039613;28;20045;-90
2022/07/03 00:29:40;;;;;;;6.72;3.90;;;;;;;25.83;43.27;99065.22;5037161;28;20060;-91
2022/07/03 00:32:18;;;;;;;6.53;3.38;;;;;;;25.81;43.28;99061.97;5036544;28;20035;-90
2022/07/03 00:34:44;;;;;;;6.00;3.63;;;;;;;25.79;43.30;99060.50;5018829;28;20026;-90
2022/07/03 00:37:09;;;;;;;4.68;3.50;;;;;;;25.78;43.46;99054.34;5033453;28;20083;-90
2022/07/03 00:39:37;;;;;;;4.55;3.47;;;;;;;25.79;43.39;99049.81;5032246;28;20097;-89
2022/07/03 00:42:03;;;;;;;8.50;3.95;;;;;;;25.76;43.68;99056.41;5033685;28;20492;-90
2022/07/03 00:44:29;;;;;;;7.47;3.60;;;;;;;25.74;43.64;99058.47;5032042;28;20056;-90
2022/07/03 00:46:55;;;;;;;4.97;3.83;;;;;;;25.74;43.74;99066.47;5034200;28;20025;-93
2022/07/03 00:49:20;;;;;;;5.80;3.47;;;;;;;25.76;43.71;99060.91;5033678;28;20033;-89
2022/07/03 00:51:47;;;;;;;5.38;3.75;;;;;;;25.74;43.91;99047.75;5015987;28;20041;-89
2022/07/03 00:54:12;;;;;;;3.92;3.50;;;;;;;25.72;43.89;99044.47;5034145;28;20029;-88
2022/07/03 00:56:39;;;;;;;4.38;3.58;;;;;;;25.72;44.22;99039.13;5050457;28;20030;-90
2022/07/03 00:59:04;;;;;;;9.40;3.70;;;;;;;25.73;44.26;99046.13;5023651;28;20029;-81
2022/07/03 01:01:32;;;;;;;7.70;3.70;;;;;;;25.69;44.21;99036.88;5017037;28;20462;-83
2022/07/03 01:04:08;;;;;;;5.07;3.83;;;;;;;25.65;44.43;99035.66;5002652;28;20076;-87
2022/07/03 01:06:37;;;;;;;5.00;3.42;;;;;;;25.67;44.63;99035.47;5019565;28;20033;-86
2022/07/03 01:09:03;;;;;;;6.60;3.90;;;;;;;25.66;44.45;99029.28;5035651;28;20488;-86
2022/07/03 01:11:37;;;;;;;5.88;3.60;;;;;;;25.72;44.43;99039.13;5018278;28;20036;-86
2022/07/03 01:14:15;;;;;;;7.57;3.75;;;;;;;25.74;44.62;99034.41;5018412;28;20026;-88
2022/07/03 01:16:54;;;;;;;4.25;3.45;;;;;;;25.76;44.58;99039.53;5034589;28;20094;-86
2022/07/03 01:19:37;;;;;;;5.55;3.70;;;;;;;25.74;44.28;99034.41;5034617;28;20048;-85
2022/07/03 01:22:24;;;;;;;5.32;3.30;;;;;;;25.80;44.43;99030.88;5036164;28;20026;-85
2022/07/03 01:25:15;;;;;;;5.32;3.53;;;;;;;25.82;44.55;99036.88;5035332;28;20057;-86
2022/07/03 01:28:16;;;;;;;4.97;3.55;;;;;;;25.84;44.26;99039.34;5035114;28;20025;-86
2022/07/03 01:30:52;;;;;;;4.88;3.63;;;;;;;25.79;44.49;99039.97;4997634;28;20030;-86
2022/07/03 01:33:25;;;;;;;5.80;3.53;;;;;;;25.79;44.42;99034.63;4981685;28;20129;-85
2022/07/03 01:36:06;;;;;;;8.35;3.67;;;;;;;25.85;44.41;99034.81;4996426;28;20030;-86
2022/07/03 01:38:33;;;;;;;7.60;4.20;;;;;;;25.79;44.83;99037.28;4980655;28;20149;-87
2022/07/03 01:40:59;;;;;;;5.90;3.53;;;;;;;25.81;44.82;99037.06;4965291;28;20048;-86
2022/07/03 01:43:29;;;;;;;6.30;3.63;;;;;;;25.82;44.57;99033.34;4997104;28;20033;-86
2022/07/03 01:45:57;;;;;;;6.85;3.33;;;;;;;25.83;44.70;99035.00;4981674;28;20057;-86
2022/07/03 01:48:23;;;;;;;4.30;3.70;;;;;;;25.82;44.70;99031.53;4982296;28;20155;-86
2022/07/03 01:50:49;;;;;;;3.85;3.50;;;;;;;25.78;44.29;99032.97;4998796;28;20034;-85
2022/07/03 01:53:15;;;;;;;8.30;4.20;;;;;;;25.80;44.62;99035.44;4981211;28;20028;-86
2022/07/03 01:55:42;;;;;;;5.78;3.70;;;;;;;25.80;44.79;99038.91;4997677;28;20034;-86
2022/07/03 01:58:08;;;;;;;4.20;3.35;;;;;;;25.73;44.90;99030.09;4981885;28;20042;-87
2022/07/03 02:01:06;;;;;;;5.47;3.55;;;;;;;25.67;44.79;99032.78;4965712;28;20034;-87
2022/07/03 02:03:33;;;;;;;8.20;3.95;;;;;;;25.63;44.85;99029.69;4956898;28;20063;-87
2022/07/03 02:06:11;;;;;;;7.60;3.70;;;;;;;25.63;45.09;99041.22;4943705;28;20505;-87
2022/07/03 02:08:43;;;;;;;6.22;3.95;;;;;;;25.62;44.96;99044.09;4942771;28;20038;-86
2022/07/03 02:11:18;;;;;;;7.35;4.30;;;;;;;25.58;45.00;99032.97;4942140;28;20073;-86
2022/07/03 02:13:55;;;;;;;8.45;3.55;;;;;;;25.57;45.12;99034.03;4927141;28;20561;-86
2022/07/03 02:16:24;;;;;;;4.95;3.83;;;;;;;25.55;45.17;99028.03;4974766;28;20198;-85
2022/07/03 02:19:03;;;;;;;5.15;3.78;;;;;;;25.48;45.44;99024.56;4928742;28;20062;-86
2022/07/03 02:21:29;;;;;;;9.07;4.10;;;;;;;25.53;45.49;99037.31;4927186;28;20126;-86
2022/07/03 02:23:54;;;;;;;8.55;3.80;;;;;;;25.53;45.31;99032.78;4926922;28;20494;-87
2022/07/03 02:26:25;;;;;;;4.75;3.53;;;;;;;25.51;45.39;99031.34;4975057;28;20518;-88
2022/07/03 02:28:54;;;;;;;5.68;4.00;;;;;;;25.55;45.34;99032.59;4958388;28;20043;-87
2022/07/03 02:31:21;;;;;;;6.00;3.95;;;;;;;25.57;45.50;99033.19;4958091;28;20039;-86
2022/07/03 02:33:47;;;;;;;4.95;3.85;;;;;;;25.50;45.46;99022.50;4941477;28;20050;-86
2022/07/03 02:36:12;;;;;;;5.85;3.95;;;;;;;25.56;45.33;99035.03;4958826;28;20039;-86
2022/07/03 02:38:38;;;;;;;8.85;3.97;;;;;;;25.58;45.08;99035.66;4964906;28;20405;-87
2022/07/03 02:41:09;;;;;;;5.72;3.90;;;;;;;25.60;45.24;99028.28;5017492;28;20029;-86
2022/07/03 02:43:52;;;;;;;5.85;4.20;;;;;;;25.59;45.21;99037.31;5002354;28;20038;-87
2022/07/03 02:46:50;;;;;;;7.47;3.92;;;;;;;25.56;45.36;99028.88;5017578;28;20036;-87
2022/07/03 02:49:48;;;;;;;6.43;4.10;;;;;;;25.62;45.03;99034.22;5007372;28;20040;-87
2022/07/03 02:52:35;;;;;;;6.30;4.03;;;;;;;25.62;45.17;99046.78;4997309;28;20066;-87
2022/07/03 02:55:23;;;;;;;7.53;4.10;;;;;;;25.59;44.98;99039.97;4999265;28;20033;-87
2022/07/03 02:58:04;;;;;;;7.10;4.43;;;;;;;25.56;45.19;99042.25;4983500;28;20042;-87
2022/07/03 03:00:33;;;;;;;6.55;4.05;;;;;;;25.48;45.34;99039.81;4967069;28;20062;-85
2022/07/03 03:03:01;;;;;;;5.57;4.35;;;;;;;25.51;44.93;99042.03;4981548;28;20052;-86
2022/07/03 03:05:47;;;;;;;4.72;3.67;;;;;;;25.69;44.97;99042.22;4980879;28;20041;-87
2022/07/03 03:08:42;;;;;;;7.30;4.03;;;;;;;25.89;44.41;99046.72;4997606;28;20120;-88
2022/07/03 03:11:09;;;;;;;7.47;4.10;;;;;;;26.06;43.67;99042.59;4997223;28;20072;-84
2022/07/03 03:13:35;;;;;;;6.78;3.97;;;;;;;26.39;43.08;99047.00;4980688;28;20064;-85
2022/07/03 03:16:08;;;;;;;5.63;4.18;;;;;;;26.60;42.81;99055.75;4980193;28;20037;-87
2022/07/03 03:18:38;;;;;;;6.45;3.92;;;;;;;26.78;42.29;99055.91;4979447;28;20030;-86
2022/07/03 03:21:12;;;;;;;6.10;4.25;;;;;;;26.99;41.94;99052.06;4996492;28;20030;-86
2022/07/03 03:23:52;;;;;;;6.20;3.95;;;;;;;27.38;41.08;99054.72;4980322;28;20438;-86
2022/07/03 03:26:21;;;;;;;6.07;3.70;;;;;;;27.68;40.30;99051.34;4979459;28;20034;-86
2022/07/03 03:28:47;;;;;;;6.40;3.67;;;;;;;27.96;39.95;99046.34;5003748;28;20436;-86
2022/07/03 03:31:13;;;;;;;4.32;3.60;;;;;;;28.28;39.18;99051.56;5017285;28;20044;-86
2022/07/03 03:33:46;;;;;;;6.35;3.92;;;;;;;28.58;38.57;99040.06;5000640;28;20041;-86
2022/07/03 03:36:12;;;;;;;7.10;3.78;;;;;;;28.93;38.06;99046.59;5016224;28;20036;-86
2022/07/03 03:38:38;;;;;;;10.77;4.05;;;;;;;29.30;37.23;99057.22;5000089;28;20119;-86
2022/07/03 03:41:04;;;;;;;7.72;3.83;;;;;;;29.61;36.90;99049.88;5016622;28;20057;-87
2022/07/03 03:43:30;;;;;;;6.32;3.50;;;;;;;29.94;36.27;99044.72;5016755;28;20105;-86
2022/07/03 03:45:56;;;;;;;3.95;3.42;;;;;;;30.40;35.78;99050.28;5015823;28;20038;-85
2022/07/03 03:48:22;;;;;;;4.43;3.38;;;;;;;30.74;35.07;99058.47;5017013;28;20462;-85
2022/07/03 03:50:48;;;;;;;6.63;3.40;;;;;;;31.13;34.41;99050.53;5016037;28;20029;-85
2022/07/03 03:53:15;;;;;;;5.05;3.15;;;;;;;31.46;33.68;99059.69;5032550;28;20029;-85
2022/07/03 03:56:00;;;;;;;4.28;3.47;;;;;;;31.84;33.41;99055.44;5016424;28;20029;-86
2022/07/03 03:58:26;;;;;;;7.97;4.30;;;;;;;32.25;32.55;99056.00;5033510;28;20033;-75
2022/07/03 04:00:53;;;;;;;7.50;3.60;;;;;;;32.72;31.91;99056.53;5030438;28;20052;-72
2022/07/03 04:03:19;;;;;;;4.38;3.20;;;;;;;33.13;31.54;99052.31;5030550;28;20116;-71
2022/07/03 04:05:44;;;;;;;42.70;4.20;;;;;;;33.69;30.41;99049.22;5031189;28;20412;-72
2022/07/03 04:08:10;;;;;;;16.75;3.50;;;;;;;34.29;30.04;99053.66;5017617;28;20488;-72
2022/07/03 04:10:35;;;;;;;11.02;3.67;;;;;;;35.01;29.71;99053.81;5034102;28;20068;-72
2022/07/03 04:13:01;;;;;;;10.75;3.90;;;;;;;35.66;27.70;99054.88;5017679;28;20060;-71
2022/07/03 04:15:26;;;;;;;7.18;3.50;;;;;;;36.23;27.43;99052.00;5001602;28;20507;-72
2022/07/03 04:17:52;;;;;;;6.47;3.30;;;;;;;36.75;26.19;99049.84;5017660;28;20033;-72
2022/07/03 04:20:17;;;;;;;11.25;4.32;;;;;;;37.10;26.47;99053.41;5017502;28;20033;-76
2022/07/03 04:22:44;;;;;;;9.98;3.60;;;;;;;37.57;24.31;99048.38;5001249;28;20051;-76
2022/07/03 04:25:10;;;;;;;4.43;3.30;;;;;;;38.08;23.47;99047.00;5034974;28;20022;-77
2022/07/03 04:27:35;;;;;;;5.90;3.40;;;;;;;38.59;22.49;99049.09;5012029;28;20034;-76
2022/07/03 04:30:01;;;;;;;6.80;3.15;;;;;;;39.05;21.75;99053.06;5012972;28;20409;-77
2022/07/03 04:32:26;;;;;;;5.90;3.28;;;;;;;39.54;21.31;99043.50;5030115;28;20078;-78
2022/07/03 04:34:51;;;;;;;6.55;3.00;;;;;;;39.89;21.29;99052.13;5014045;28;20034;-78
2022/07/03 04:37:17;;;;;;;15.60;3.20;;;;;;;40.20;20.77;99054.25;5013643;28;20041;-78
2022/07/03 04:39:43;;;;;;;6.43;3.25;;;;;;;40.47;20.37;99052.59;5023446;28;20041;-77
2022/07/03 04:42:09;;;;;;;6.45;2.90;;;;;;;40.82;19.76;99050.97;5054894;28;20107;-77
2022/07/03 04:44:34;;;;;;;5.63;2.90;;;;;;;41.33;19.12;99042.66;5053502;28;20048;-76
2022/07/03 04:47:00;;;;;;;9.10;2.85;;;;;;;41.58;18.88;99052.91;5035834;28;20127;-79
2022/07/03 04:49:25;;;;;;;5.32;2.72;;;;;;;42.02;18.43;99053.09;5036134;28;20048;-80
2022/07/03 04:51:53;;;;;;;7.93;2.80;;;;;;;42.47;18.09;99052.84;5020934;28;20033;-83
2022/07/03 04:54:18;;;;;;;4.10;3.00;;;;;;;42.91;17.51;99061.09;5036253;28;20393;-82
2022/07/03 04:56:44;;;;;;;5.25;2.78;;;;;;;43.24;17.26;99065.25;5053944;28;20066;-81
2022/07/03 04:59:10;;;;;;;6.07;2.80;;;;;;;43.52;16.36;99057.44;5035599;28;20123;-81
2022/07/03 05:01:35;;;;;;;5.10;3.03;;;;;;;43.80;16.23;99057.03;5053488;28;20040;-81
2022/07/03 05:04:01;;;;;;;5.73;2.77;;;;;;;44.23;16.26;99051.31;5044992;28;20037;-82
2022/07/03 05:06:26;;;;;;;7.47;2.53;;;;;;;44.78;15.97;99063.19;5022909;28;20508;-81
2022/07/03 05:08:52;;;;;;;6.80;2.90;;;;;;;45.16;15.45;99064.16;5039764;28;20060;-81
2022/07/03 05:11:17;;;;;;;3.13;2.40;;;;;;;45.51;14.92;99061.81;5022871;28;20067;-81
2022/07/03 05:13:43;;;;;;;7.23;2.60;;;;;;;45.80;14.72;99060.03;5020957;28;20077;-81
2022/07/03 05:16:08;;;;;;;7.90;2.47;;;;;;;46.04;14.06;99067.47;4996050;28;20070;-81
2022/07/03 05:18:35;;;;;;;9.47;2.83;;;;;;;46.31;13.92;99067.13;5019888;28;20029;-80
2022/07/03 05:21:00;;;;;;;9.02;2.75;;;;;;;46.44;13.92;99068.69;5022644;28;20029;-81
2022/07/03 05:23:26;;;;;;;10.53;2.67;;;;;;;46.67;13.45;99063.47;5002854;28;20104;-81
2022/07/03 05:25:52;;;;;;;8.53;2.97;;;;;;;47.00;12.98;99065.16;5000463;28;21587;-80
2022/07/03 05:28:18;;;;;;;7.05;2.55;;;;;;;47.18;13.34;99067.63;5019522;28;20408;-81
2022/07/03 05:30:43;;;;;;;8.27;2.43;;;;;;;47.41;12.80;99065.06;5049793;28;20040;-81
2022/07/03 05:33:09;;;;;;;5.37;2.60;;;;;;;47.68;12.36;99073.66;5010410;28;20385;-81
2022/07/03 05:35:34;;;;;;;6.83;2.47;;;;;;;47.96;12.64;99070.75;5037559;28;20030;-80
2022/07/03 05:38:00;;;;;;;4.07;2.40;;;;;;;48.04;12.30;99071.72;5032667;28;20447;-80
2022/07/03 05:40:25;;;;;;;5.20;2.30;;;;;;;48.20;12.50;99072.50;5015763;28;20026;-83
2022/07/03 05:42:52;;;;;;;9.33;2.97;;;;;;;48.36;12.09;99073.28;5031854;28;20108;-80
2022/07/03 05:45:17;;;;;;;6.18;2.40;;;;;;;48.62;12.01;99068.28;5015712;28;20021;-80
2022/07/03 05:47:43;;;;;;;5.43;2.33;;;;;;;48.64;11.94;99069.50;5015093;28;20466;-80
2022/07/03 05:50:09;;;;;;;6.10;2.43;;;;;;;48.58;11.94;99070.94;5031538;28;20268;-79
2022/07/03 05:52:34;;;;;;;8.07;2.50;;;;;;;48.76;11.83;99073.28;5032121;28;20030;-80
2022/07/03 05:55:00;;;;;;;7.33;3.27;;;;;;;48.84;11.98;99072.31;5032035;28;20424;-80
2022/07/03 05:57:25;;;;;;;4.67;3.17;;;;;;;49.05;11.96;99074.66;5016181;28;20041;-79
2022/07/03 05:59:51;;;;;;;9.07;2.57;;;;;;;49.12;11.66;99072.00;5031993;28;20052;-79
2022/07/03 06:02:17;;;;;;;4.27;2.80;;;;;;;49.02;11.85;99075.41;4999141;28;20036;-80
2022/07/03 06:04:42;;;;;;;3.70;2.30;;;;;;;48.94;11.66;99071.69;5033361;28;20021;-80
2022/07/03 06:07:08;;;;;;;4.13;2.17;;;;;;;48.88;11.66;99073.94;5032310;28;20041;-79
2022/07/03 06:09:33;;;;;;;5.17;2.90;;;;;;;48.68;11.83;99077.88;5031960;28;20034;-80
2022/07/03 06:11:59;;;;;;;8.93;3.20;;;;;;;48.73;11.92;99075.63;4994445;28;20300;-79
2022/07/03 06:14:24;;;;;;;9.00;2.97;;;;;;;48.85;12.54;99073.88;5010852;28;20046;-79
2022/07/03 06:16:50;;;;;;;4.63;2.37;;;;;;;48.92;12.22;99076.81;5011860;28;20045;-77
2022/07/03 06:19:15;;;;;;;5.47;2.80;;;;;;;48.90;12.12;99079.13;4994778;28;20112;-89
2022/07/03 06:21:41;;;;;;;6.40;2.60;;;;;;;48.84;11.99;99073.09;5011898;28;20128;-78
2022/07/03 06:24:06;;;;;;;4.00;2.60;;;;;;;48.76;12.25;99076.03;5012800;28;20060;-78
2022/07/03 06:26:32;;;;;;;6.73;2.37;;;;;;;48.72;12.23;99071.22;5012405;28;20022;-78
2022/07/03 06:28:57;;;;;;;3.13;2.20;;;;;;;48.69;11.59;99062.88;4994946;28;20042;-77
2022/07/03 06:31:22;;;;;;;5.47;2.00;;;;;;;48.62;11.50;99071.06;4994495;28;20489;-78
2022/07/03 06:33:48;;;;;;;5.47;2.10;;;;;;;48.50;11.88;99071.97;5011835;28;20088;-78
2022/07/03 06:36:14;;;;;;;7.03;2.30;;;;;;;48.40;12.14;99065.03;5010930;28;20505;-78
2022/07/03 06:38:39;;;;;;;6.72;2.72;;;;;;;48.38;12.14;99067.38;5011177;28;20029;-79
2022/07/03 06:41:05;;;;;;;7.03;2.23;;;;;;;48.34;12.07;99066.47;4994063;28;20485;-80
2022/07/03 06:43:30;;;;;;;4.67;2.10;;;;;;;48.19;12.00;99070.91;5011049;28;20026;-75
2022/07/03 06:45:56;;;;;;;5.07;2.10;;;;;;;48.05;12.67;99059.50;5020779;28;20416;-89
2022/07/03 06:48:21;;;;;;;4.60;2.30;;;;;;;48.00;12.38;99063.34;4996393;28;20041;-78
2022/07/03 06:50:46;;;;;;;3.83;2.30;;;;;;;48.13;12.44;99058.53;5004859;28;20033;-79
2022/07/03 06:53:12;;;;;;;4.17;2.10;;;;;;;48.25;12.73;99055.59;5001977;28;20026;-77
2022/07/03 06:55:37;;;;;;;7.47;2.30;;;;;;;48.33;12.73;99064.88;4986963;28;20421;-77
2022/07/03 06:58:03;;;;;;;5.37;2.10;;;;;;;48.42;12.19;99067.47;5011880;28;20145;-77
2022/07/03 07:00:28;;;;;;;6.80;2.00;;;;;;;48.46;11.73;99057.25;5002019;28;20117;-78
2022/07/03 07:02:54;;;;;;;4.03;2.07;;;;;;;48.54;11.66;99061.78;5004400;28;20037;-78
2022/07/03 07:05:19;;;;;;;7.20;2.33;;;;;;;48.32;13.65;99057.75;5007864;28;20488;-78
2022/07/03 07:07:45;;;;;;;4.53;1.70;;;;;;;48.28;12.81;99056.84;5002295;28;20029;-78
2022/07/03 07:10:10;;;;;;;3.07;1.83;;;;;;;48.24;12.60;99054.03;4994538;28;20037;-77
2022/07/03 07:12:36;;;;;;;4.37;1.73;;;;;;;48.19;12.74;99044.03;5010787;28;20060;-83
2022/07/03 07:15:01;;;;;;;4.60;1.90;;;;;;;48.16;12.65;99053.06;4996868;28;20469;-77
2022/07/03 07:17:27;;;;;;;5.57;2.03;;;;;;;48.08;12.30;99053.25;5031736;28;20026;-78
2022/07/03 07:19:55;;;;;;;4.13;1.77;;;;;;;48.00;12.30;99057.81;4997423;28;20029;-77
2022/07/03 07:22:21;;;;;;;6.25;1.60;;;;;;;47.88;11.72;99053.19;5014139;28;20283;-75
2022/07/03 07:24:46;;;;;;;4.30;1.70;;;;;;;47.75;11.70;99057.25;5013515;28;20033;-73
2022/07/03 07:27:11;;;;;;;3.30;1.70;;;;;;;47.57;11.69;99054.00;5013618;28;20025;-74
2022/07/03 07:29:37;;;;;;;3.43;1.80;;;;;;;47.44;11.72;99058.81;5013301;28;20029;-76
2022/07/03 07:32:03;;;;;;;2.90;1.30;;;;;;;47.28;11.85;99056.03;5031610;28;20036;-76
2022/07/03 07:34:28;;;;;;;4.05;2.00;;;;;;;46.96;13.36;99060.72;5030278;28;20026;-74
2022/07/03 07:36:54;;;;;;;6.80;2.07;;;;;;;46.66;13.16;99055.53;5013737;28;20405;-72
2022/07/03 07:39:19;;;;;;;3.57;1.73;;;;;;;46.14;12.46;99057.91;5030139;28;20550;-74
2022/07/03 07:41:45;;;;;;;7.87;1.80;;;;;;;46.15;12.61;99058.72;4999638;28;20038;-74
2022/07/03 07:44:10;;;;;;;4.60;1.80;;;;;;;46.07;12.79;99051.38;5033964;28;20461;-76
2022/07/03 07:46:36;;;;;;;3.27;1.80;;;;;;;45.89;12.94;99054.38;5000863;28;20033;-77
2022/07/03 07:49:01;;;;;;;5.23;1.90;;;;;;;45.79;12.98;99061.19;5033973;28;20041;-78
2022/07/03 07:51:27;;;;;;;9.17;2.10;;;;;;;45.49;14.49;99057.81;5017540;28;20041;-79
2022/07/03 07:53:56;;;;;;;4.33;2.20;;;;;;;45.27;15.94;99067.28;5034013;28;20404;-77
2022/07/03 07:56:22;;;;;;;5.40;2.13;;;;;;;45.18;14.86;99067.34;5034588;28;20029;-78
2022/07/03 07:58:48;;;;;;;4.67;1.70;;;;;;;45.10;14.57;99063.56;5035052;28;20034;-80
2022/07/03 08:06:41;;;;;;;3.95;1.92;;;;;;;45.00;13.86;99060.44;5034665;28;20107;-77
2022/07/03 08:09:06;;;;;;;4.23;2.07;;;;;;;44.91;13.56;99066.78;5033466;28;20404;-77
2022/07/03 08:11:32;;;;;;;5.80;2.10;;;;;;;44.67;13.47;99069.47;5033802;28;20033;-77
2022/07/03 08:13:57;;;;;;;3.27;2.03;;;;;;;44.28;14.05;99061.28;5033791;28;20117;-76
2022/07/03 08:16:23;;;;;;;5.27;1.87;;;;;;;44.14;14.01;99064.28;5034571;28;20025;-76
2022/07/03 08:18:48;;;;;;;3.33;1.70;;;;;;;43.75;14.64;99065.44;5017086;28;20041;-77
2022/07/03 08:21:14;;;;;;;3.90;1.60;;;;;;;43.75;14.67;99060.75;5016535;28;20152;-76
2022/07/03 08:23:39;;;;;;;8.10;1.90;;;;;;;43.72;14.71;99070.47;5016774;28;20079;-78
2022/07/03 08:26:05;;;;;;;6.90;2.07;;;;;;;43.68;14.49;99061.28;5034350;28;20034;-77
2022/07/03 08:28:31;;;;;;;3.73;1.80;;;;;;;43.12;14.81;99065.94;5033348;28;20037;-76
2022/07/03 08:30:56;;;;;;;3.87;2.00;;;;;;;42.82;14.64;99063.84;5034801;28;20041;-80
2022/07/03 08:33:21;;;;;;;2.47;1.70;;;;;;;42.65;15.17;99061.94;5032783;28;20026;-83
2022/07/03 08:35:47;;;;;;;3.00;2.00;;;;;;;42.54;15.45;99065.28;5027334;28;20492;-74
2022/07/03 08:38:12;;;;;;;3.53;1.90;;;;;;;42.41;15.53;99069.78;5020935;28;20029;-75
2022/07/03 08:40:38;;;;;;;4.78;2.00;;;;;;;42.23;15.91;99069.78;5006385;28;20860;-76
2022/07/03 08:43:04;;;;;;;3.47;2.10;;;;;;;42.09;16.04;99069.06;5020702;28;20026;-76
2022/07/03 08:45:29;;;;;;;5.57;1.90;;;;;;;41.99;16.22;99070.19;5021323;28;20077;-75
2022/07/03 08:47:57;;;;;;;5.07;1.90;;;;;;;41.85;16.30;99064.81;5006135;28;20030;-77
2022/07/03 08:50:22;;;;;;;3.47;2.10;;;;;;;41.89;16.13;99067.72;5006478;28;20021;-80
2022/07/03 08:52:48;;;;;;;3.83;2.13;;;;;;;41.78;16.03;99069.13;5003296;28;20034;-78
2022/07/03 08:55:14;;;;;;;3.20;1.90;;;;;;;41.69;16.10;99069.88;5003856;28;20033;-76
2022/07/03 08:57:41;;;;;;;4.97;1.90;;;;;;;41.58;16.43;99071.28;5005948;28;20025;-79
2022/07/03 09:00:09;;;;;;;3.47;1.80;;;;;;;41.33;16.81;99065.34;4988130;28;20046;-77
2022/07/03 09:02:35;;;;;;;4.50;2.00;;;;;;;41.31;16.65;99069.53;4988144;28;20029;-76
2022/07/03 09:05:01;;;;;;;5.35;2.00;;;;;;;41.25;16.54;99065.28;5003400;28;20488;-74
2022/07/03 09:07:27;;;;;;;;;;;;;;;40.77;16.84;99075.72;5021676;28;20029;-74
2022/07/03 09:09:53;;;;;;;4.90;1.83;;;;;;;40.59;17.14;99068.47;5021767;28;19924;-67
2022/07/03 09:12:19;;;;;;;8.60;1.98;;;;;;;40.47;17.47;99067.09;5002564;28;20486;-77
2022/07/03 09:14:45;;;;;;;2.57;2.10;;;;;;;40.35;17.64;99064.03;5006348;28;20033;-71
2022/07/03 09:17:10;;;;;;;10.05;1.95;;;;;;;40.15;20.35;99066.13;5021219;28;20447;-68
2022/07/03 09:19:54;;;;;;;5.78;1.90;;;;;;;40.11;20.37;99067.03;4988903;28;20467;-71
2022/07/03 09:22:24;;;;;;;11.00;2.08;;;;;;;40.06;19.80;99061.66;4988938;28;20114;-70
2022/07/03 09:24:50;;;;;;;5.60;2.20;;;;;;;39.94;20.22;99048.47;5005643;28;20045;-75
2022/07/03 09:27:17;;;;;;;16.35;2.40;;;;;;;39.89;23.61;99059.53;5002937;28;20033;-72
2022/07/03 09:30:01;;;;;;;13.90;2.40;;;;;;;39.69;22.43;99061.50;4988547;28;20026;-71
2022/07/03 09:32:44;;;;;;;6.50;2.38;;;;;;;39.69;21.74;99049.78;5021706;28;20065;-71
2022/07/03 09:35:19;;;;;;;4.00;2.20;;;;;;;39.65;21.86;99056.97;5006855;28;20072;-71
2022/07/03 09:38:01;;;;;;;6.85;2.20;;;;;;;39.46;21.02;99055.09;5020342;28;20026;-72
2022/07/03 09:40:45;;;;;;;5.22;2.17;;;;;;;39.27;20.62;99060.63;5012948;28;20053;-71
2022/07/03 09:43:10;;;;;;;6.55;1.88;;;;;;;39.03;20.32;99045.16;5022197;28;20108;-71
2022/07/03 09:45:58;;;;;;;2.42;1.80;;;;;;;38.89;20.14;99030.66;5005179;28;20037;-72
2022/07/03 09:48:42;;;;;;;2.78;1.75;;;;;;;38.86;19.92;99032.06;5021550;28;20512;-71
2022/07/03 09:51:23;;;;;;;8.43;2.10;;;;;;;38.62;23.01;99043.06;5005281;28;20041;-73
2022/07/03 09:53:53;;;;;;;6.93;2.00;;;;;;;38.35;22.63;99036.34;4989939;28;20038;-70
2022/07/03 09:56:19;;;;;;;7.55;2.10;;;;;;;38.24;22.29;99040.31;5019020;28;20025;-72
2022/07/03 09:59:11;;;;;;;4.68;2.33;;;;;;;37.99;23.54;99034.03;5021388;28;20056;-72
2022/07/03 10:01:41;;;;;;;6.85;4.60;;;;;;;37.80;24.98;99036.72;4962394;28;20566;-72
2022/07/03 10:04:18;;;;;;;11.98;4.80;;;;;;;37.73;24.33;99027.28;4979318;28;20041;-75
2022/07/03 10:06:46;;;;;;;11.05;5.38;;;;;;;37.70;25.24;99025.97;4964867;28;20049;-75
2022/07/03 10:09:12;;;;;;;9.90;6.00;;;;;;;37.59;25.77;99027.94;4964675;28;20565;-76
2022/07/03 10:11:38;;;;;;;8.95;6.38;;;;;;;37.45;25.75;99027.00;4930137;28;20141;-83
2022/07/03 10:14:03;;;;;;;7.10;5.03;;;;;;;37.16;23.77;99029.69;4974085;28;20046;-70
2022/07/03 10:16:29;;;;;;;7.13;4.35;;;;;;;36.97;22.85;99015.97;4974586;28;20057;-76
2022/07/03 10:18:54;;;;;;;7.03;4.30;;;;;;;36.90;23.12;99011.66;4958249;28;20097;-71
2022/07/03 10:21:19;;;;;;;5.50;4.00;;;;;;;36.84;23.38;99022.88;4974540;28;20529;-72
2022/07/03 10:23:45;;;;;;;6.40;3.78;;;;;;;36.61;23.00;99000.72;4956530;28;20081;-75
2022/07/03 10:26:10;;;;;;;5.35;3.92;;;;;;;36.47;23.97;99003.25;4973771;28;20074;-72
2022/07/03 10:28:36;;;;;;;4.88;3.67;;;;;;;36.32;23.64;98993.28;4990406;28;20040;-75
2022/07/03 10:31:01;;;;;;;6.40;4.00;;;;;;;36.24;25.21;99004.72;4973931;28;20042;-71
2022/07/03 10:33:27;;;;;;;7.85;3.40;;;;;;;36.11;24.13;99002.63;4990046;28;20409;-72
2022/07/03 10:35:53;;;;;;;5.00;3.08;;;;;;;35.80;24.12;99000.84;4989854;28;20088;-71
2022/07/03 10:38:34;;;;;;;13.23;4.13;;;;;;;35.53;24.74;98989.50;4998502;28;20424;-77
2022/07/03 10:46:51;;;;;;;6.65;2.60;;;;;;;35.16;23.99;98988.72;4971349;28;20041;-78
2022/07/03 10:49:16;;;;;;;6.03;2.90;;;;;;;34.90;24.78;98985.19;4970496;28;20426;-81
2022/07/03 10:51:44;;;;;;;7.93;2.50;;;;;;;34.71;23.64;98979.47;4956113;28;20066;-80
2022/07/03 10:54:26;;;;;;;4.47;2.50;;;;;;;34.75;24.14;98975.16;4970447;28;20073;-78
2022/07/03 10:56:58;;;;;;;12.13;2.97;;;;;;;34.83;25.90;98984.66;4953858;28;20034;-75
2022/07/03 10:59:36;;;;;;;4.47;2.70;;;;;;;34.74;25.02;98977.06;4970633;28;20027;-78
2022/07/03 11:02:22;;;;;;;7.53;2.72;;;;;;;34.54;23.47;98977.84;4965045;28;20050;-67
2022/07/03 11:04:57;;;;;;;5.65;2.40;;;;;;;34.30;24.85;98969.41;4959219;28;20106;-67
2022/07/03 11:07:23;;;;;;;9.35;2.50;;;;;;;34.28;25.96;98960.69;4943848;28;20759;-71
2022/07/03 11:10:10;;;;;;;3.75;2.38;;;;;;;34.00;24.18;98975.47;4926603;28;20023;-73
2022/07/03 11:12:55;;;;;;;;;;;;;;;33.91;23.88;98975.19;4959137;28;20047;-72
2022/07/03 11:15:58;;;;;;;6.38;2.78;;;;;;;33.95;23.95;98960.03;4959746;28;20516;-73
2022/07/03 11:18:31;;;;;;;5.05;3.22;;;;;;;33.77;24.77;98946.97;4960372;28;20042;-73
2022/07/03 11:21:15;;;;;;;3.90;2.67;;;;;;;33.97;24.18;98951.63;4992352;28;20040;-71
2022/07/03 11:24:00;;;;;;;5.35;2.80;;;;;;;33.84;24.86;98947.53;5021357;28;20100;-71
2022/07/03 11:26:26;;;;;;;4.35;2.40;;;;;;;33.78;25.54;98941.31;5006779;28;20037;-74
2022/07/03 11:28:52;;;;;;;5.22;2.70;;;;;;;33.78;26.55;98945.88;4990938;28;20021;-68
2022/07/03 11:31:18;;;;;;;6.43;2.75;;;;;;;33.86;26.15;98935.38;5022070;28;20481;-71
2022/07/03 11:33:47;;;;;;;6.97;2.45;;;;;;;33.89;24.87;98942.97;4990023;28;20025;-71
2022/07/03 11:36:16;;;;;;;9.55;2.63;;;;;;;33.89;25.03;98947.59;5023817;28;20057;-68
2022/07/03 11:38:42;;;;;;;6.45;2.72;;;;;;;33.90;25.84;98946.47;5023873;28;20022;-68
2022/07/03 11:41:08;;;;;;;4.95;2.88;;;;;;;34.01;25.19;98934.59;5005435;28;20403;-71
2022/07/03 11:43:34;;;;;;;7.95;3.20;;;;;;;34.12;25.31;98940.06;5023970;28;20060;-69
2022/07/03 11:46:00;;;;;;;13.00;3.65;;;;;;;34.15;25.54;98934.09;5005718;28;20026;-69
2022/07/03 11:48:26;;;;;;;9.18;3.22;;;;;;;34.02;25.00;98938.13;5005692;28;20100;-70
2022/07/03 11:50:51;;;;;;;8.18;3.58;;;;;;;33.95;25.71;98938.38;4991870;28;20111;-76
2022/07/03 11:53:28;;;;;;;5.85;3.30;;;;;;;33.98;25.75;98935.13;4988893;28;20042;-70